Attica, Kansas
Current Conditions -  °F | °C
As of 11:30 AM on Wednesday 26 Nov 2014 (Local Time) from KAVK Reporting Station
Overcast Overcast  
Wind Chill: 10°   Ceiling: 10000
Heat Index: 10°   Visibility: 10mi
Dew Point: -4°   Wind: 28mph
Humidity: 37%   Direction: 330°NNW
Pressure: 30.22"   Gusts: 32mph
Location:  37.24°N, 98.23°W
Report Text: KAVK 261730Z AUTO 33024G28KT 10SM OVC100 10/M04 A3022 RMK AO2
Loading
Personal Weather Stations






























Interactive Weather Map New forecast layout! Learn more

10-Day Weather Forecast

Advertisements
Track Severe Weather on mobile